• Join FlightAware (Why Join?)
  • Login
  • US Flag 
07:58AM EDT


 

Airport Tracker/Info


-or-


 

Live Flight TrackerFlight Track Log ✈ DAL6139 ✈ 14-Apr-2014 ✈ KBOS - KCMH

Flight Track Log - Related Links

Times and Time Zones

All times are in EDT time to prevent confusion due to time zone crossing. See the DAL6139 flight status page for this flight to view local times or setup timezone preferences in your user account.

Time Position Orientation Groundspeed Altitude Reporting Facility
EDT Latitude Longitude Course Direction KTS MPH feet Rate Location/Type
03:01PM 42.3500 -71.0167 278° West 132 152 500  Level KA90
03:01PM 42.3333 -71.0167 180° South 149 171 1,400 1,680 Climbing KA90
03:02PM 42.3100 -70.9433 113° Southeast 229 264 3,100 1,740 Climbing Boston Center
03:03PM 42.3264 -70.8428 78° East 284 327 5,000 1,920 Climbing Boston Center
03:04PM 42.3047 -70.7442 107° East 280 322 7,100 2,100 Climbing Boston Center
03:05PM 42.2911 -71.5059 259° West  Level Estimated
03:05PM 42.2394 -70.7261 168° South 242 278 9,300  Level Boston Center
03:06PM 42.2728 -71.6305 278° West  Level Estimated
03:06PM 42.1842 -70.7725 212° Southwest 255 293 10,600  Level Boston Center
03:07PM 42.1700 -70.8944 261° West 289 333 11,800 1,080 Climbing Boston Center
03:09PM 42.1711 -71.0125 271° West 312 359 12,900 1,140 Climbing Boston Center
03:10PM 42.1714 -71.1342 270° West 324 373 14,200 1,200 Climbing Boston Center
03:11PM 42.1719 -71.2575 270° West 327 376 15,400 1,140 Climbing Boston Center
03:12PM 42.1714 -71.3933 270° West 337 388 16,600 1,140 Climbing Boston Center
03:13PM 42.1717 -71.5217 270° West 343 395 17,800 1,140 Climbing Boston Center
03:14PM 42.1714 -71.6508 270° West 344 396 19,000 1,080 Climbing Boston Center
03:15PM 42.1719 -71.7744 270° West 345 397 20,100 1,080 Climbing Boston Center
03:16PM 42.1700 -71.9075 269° West 351 404 21,300 1,140 Climbing Boston Center
03:17PM 42.1694 -72.0397 270° West 353 406 22,500 1,140 Climbing Boston Center
03:18PM 42.1689 -72.1692 270° West 353 406 23,700 1,140 Climbing Boston Center
03:19PM 42.1669 -72.2997 269° West 351 404 24,900 1,140 Climbing Boston Center
03:20PM 42.1658 -72.4314 269° West 351 404 26,100 1,260 Climbing Boston Center
03:21PM 42.1636 -72.5867 269° West 351 404 27,500 1,380 Climbing Boston Center
03:22PM 42.1608 -72.7111 268° West 338 389 29,000 1,440 Climbing Boston Center
03:23PM 42.1183 -72.8150 241° Southwest 322 371 30,500 1,260 Climbing Boston Center
03:24PM 42.0744 -72.9133 239° Southwest 307 353 31,700 1,080 Climbing Boston Center
03:25PM 42.0292 -73.0147 239° Southwest 310 357 32,800 1,080 Climbing Boston Center
03:26PM 41.9831 -73.1147 238° Southwest 313 360 33,900 540 Climbing Boston Center
03:27PM 41.9311 -73.2092 234° Southwest 312 359 34,000  Climbing Boston Center
03:28PM 41.8753 -73.3153 235° Southwest 341 392 33,900  Descending Boston Center
03:29PM 41.8164 -73.4256 234° Southwest 360 414 34,000  Climbing Boston Center
03:30PM 41.7539 -73.5394 234° Southwest 372 428 34,000  Level Boston Center
03:31PM 41.6928 -73.6550 235° Southwest 377 434 34,000  Level Boston Center
03:32PM 41.6317 -73.7639 233° Southwest 370 426 34,000  Level Boston Center
03:33PM 41.5617 -73.8933 234° Southwest 366 421 34,000  Level Boston Center
03:34PM 41.5028 -73.9997 234° Southwest 362 417 34,000  Level Boston Center
03:35PM 41.4422 -74.1086 233° Southwest 362 417 34,000  Level Boston Center
03:36PM 41.3806 -74.2189 233° Southwest 366 421 34,000  Level Boston Center
03:37PM 41.3336 -74.3106 236° Southwest 373 429 34,000 -60 Level New York Center
03:38PM 41.2631 -74.4336 233° Southwest 373 429 33,900 -60 Descending New York Center
03:39PM 41.2014 -74.5406 233° Southwest 379 436 33,900  Level New York Center
03:40PM 41.1394 -74.6528 234° Southwest 379 436 33,900  Level New York Center
03:41PM 41.0794 -74.7650 235° Southwest 384 442 33,900  Level New York Center
03:42PM 41.0175 -74.8742 233° Southwest 379 436 33,900  Level New York Center
03:43PM 40.9594 -74.9833 235° Southwest 379 436 33,900  Level New York Center
03:44PM 40.9075 -75.0925 238° Southwest 367 422 33,900  Level New York Center
03:45PM 40.8556 -75.1992 237° Southwest 360 414 33,900  Level New York Center
03:46PM 40.7992 -75.3133 237° Southwest 360 414 34,000  Climbing New York Center
03:47PM 40.7494 -75.4142 237° Southwest 360 414 34,000 -60 Level New York Center
03:48PM 40.7044 -75.5478 246° West 365 420 33,900 -60 Descending New York Center
03:49PM 40.6600 -75.6706 245° Southwest 365 420 33,900  Level New York Center
03:50PM 40.6153 -75.7933 244° Southwest 370 426 33,900  Level New York Center
03:51PM 40.5706 -75.9103 243° Southwest 370 426 33,900  Level New York Center
03:52PM 40.5242 -76.0158 240° Southwest 370 426 34,000  Climbing New York Center
03:53PM 40.4814 -76.1356 245° Southwest 370 426 34,000  Level New York Center
03:54PM 40.4344 -76.2519 242° Southwest 370 426 34,000  Level New York Center
03:55PM 40.3933 -76.3686 245° Southwest 370 426 34,000  Level New York Center
03:56PM 40.3486 -76.4794 242° Southwest 358 412 34,000  Level New York Center
03:57PM 40.3053 -76.5956 244° Southwest 353 406 34,000  Level New York Center
03:58PM 40.2583 -76.7031 240° Southwest 353 406 34,000  Level New York Center
03:59PM 40.2108 -76.8186 242° Southwest 358 412 34,000  Level New York Center
04:00PM 40.1650 -76.9369 243° Southwest 358 412 34,000  Level New York Center
04:01PM 40.1164 -77.0658 244° Southwest 358 412 34,000 -60 Level New York Center
04:02PM 40.1094 -77.1953 266° West 353 406 33,900 -660 Descending New York Center
04:04PM 40.1058 -77.4617 269° West 373 429 32,000 -780 Descending Cleveland Center
04:05PM 40.1039 -77.5956 269° West 371 427 31,500 -960 Descending Cleveland Center
04:06PM 40.1014 -77.7267 269° West 369 425 30,100 -1,500 Descending Cleveland Center
04:07PM 40.0994 -77.8839 269° West 364 419 28,400 -1,440 Descending Cleveland Center
04:08PM 40.0978 -78.0014 269° West 363 418 27,200 -1,200 Descending Cleveland Center
04:09PM 40.0947 -78.1628 269° West 369 425 26,000 -600 Descending Cleveland Center
04:10PM 40.0917 -78.3028 268° West 383 441 26,000  Level Cleveland Center
04:11PM 40.0892 -78.4456 269° West 392 451 26,000  Level Cleveland Center
04:12PM 40.0867 -78.5858 269° West 391 450 26,000  Level Cleveland Center
04:13PM 40.0839 -78.7228 269° West 384 442 26,000  Level Cleveland Center
04:14PM 40.0803 -78.8564 268° West 374 430 26,000  Level Cleveland Center
04:15PM 40.0775 -79.0161 269° West 369 425 26,000  Level Cleveland Center
04:16PM 40.0742 -79.1458 268° West 365 420 26,000  Level Cleveland Center
04:17PM 40.0697 -79.2789 268° West 365 420 26,000  Level Cleveland Center
04:19PM 40.0667 -79.4053 268° West 366 421 26,000  Level Cleveland Center
04:20PM 40.0622 -79.5406 268° West 370 426 26,000  Level Cleveland Center
04:21PM 40.0575 -79.7014 268° West 370 426 26,000  Level Cleveland Center
04:22PM 40.0531 -79.8367 268° West 371 427 26,000  Level Cleveland Center
04:23PM 40.0472 -79.9736 267° West 373 429 26,000  Level Cleveland Center
04:24PM 40.0433 -80.1119 268° West 377 434 26,000  Level Cleveland Center
04:25PM 40.0394 -80.2464 268° West 375 432 26,000  Level Cleveland Center
04:26PM 40.0342 -80.3833 267° West 373 429 26,000 -660 Level Cleveland Center
04:27PM 40.0286 -80.5208 267° West 376 433 24,700 -1,020 Descending Cleveland Center
04:28PM 40.0236 -80.6567 267° West 376 433 24,000 -1,020 Descending Cleveland Center
04:29PM 40.0172 -80.8114 267° West 358 412 22,700 -1,020 Descending Cleveland Center
04:30PM 39.9950 -80.9339 257° West 349 402 22,000 -360 Descending Cleveland Center
04:31PM 39.9708 -81.0561 256° West 348 400 22,000  Level Cleveland Center
04:32PM 39.9478 -81.1789 256° West 350 403 22,000  Level Cleveland Center
04:33PM 39.9231 -81.3039 256° West 355 409 22,000 -360 Level Cleveland Center
04:34PM 39.8958 -81.4425 256° West 355 409 21,300 -1,440 Descending Cleveland Center
04:35PM 39.8714 -81.5664 256° West 355 409 19,100 -2,160 Descending Cleveland Center
04:36PM 39.8478 -81.6831 255° West 340 391 16,900 -2,100 Descending Cleveland Center
04:37PM 39.8253 -81.7950 255° West 324 373 14,800 -1,800 Descending Cleveland Center
04:38PM 39.8033 -81.9019 255° West 309 356 13,300 -1,800 Descending Cleveland Center
04:39PM 39.7792 -82.0222 255° West 290 334 11,100 -1,560 Descending Cleveland Center
04:40PM 39.7586 -82.1206 255° West 285 328 10,100 -720 Descending Cleveland Center
04:41PM 39.7792 -82.2267 284° West 279 321 9,600 -600 Descending Indianapolis Center
04:42PM 39.7869 -82.2361 317° Northwest 274 315 9,300 -1,920 Descending Indianapolis Center
04:42PM 39.8294 -82.2994 311° West 271 312 7,700 -1,860 Descending Indianapolis Center
04:43PM 39.8356 -82.3094 309° West 272 313 7,400 -1,620 Descending Indianapolis Center
04:43PM 39.8756 -82.3692 311° West 258 297 6,100 -1,560 Descending Indianapolis Center
04:44PM 39.8819 -82.3800 308° West 261 300 5,800 -1,800 Descending Indianapolis Center
04:45PM 39.9208 -82.4497 306° West 237 273 4,100 -1,680 Descending Indianapolis Center
04:45PM 39.9217 -82.4503 333° Northwest 247 284 4,100 -120 Level Indianapolis Center
04:46PM 39.9608 -82.5378 300° West 239 275 4,000 -120 Descending Indianapolis Center
04:46PM 39.9806 -82.5789 302° West 236 272 4,000 -420 Level Indianapolis Center
04:47PM 39.9869 -82.6122 284° West 238 274 3,600 -840 Descending Indianapolis Center
04:48PM 39.9886 -82.6731 272° West 207 238 3,000 -780 Descending Indianapolis Center
04:48PM 39.9897 -82.6864 276° West 218 251 2,800 -660 Descending Indianapolis Center
04:48PM 39.9919 -82.7281 274° West 199 229 2,500 -300 Descending Indianapolis Center
04:49PM 39.9942 -82.7572 276° West 206 237 2,500 -420 Level Indianapolis Center
04:49PM 39.9956 -82.7997 272° West 177 204 2,100 -720 Descending Indianapolis Center
04:50PM 39.9981 -82.8189 280° West 188 216 1,800 -840 Descending Indianapolis Center
04:50PM 39.9992 -82.8522 273° West 136 157 1,300 -600 Descending Indianapolis Center
04:51PM 40.0017 -82.8725 279° West 160 184 1,200 -240 Descending Indianapolis Center